Time;durP1;ratioP1;P1;durP2;ratioP2;P2;SDS_P1;SDS_P2;PMS_P1;PMS_P2;Temp;Humidity;BMP_temperature;BMP_pressure;BME280_temperature;BME280_humidity;BME280_pressure;Samples;Min_cycle;Max_cycle;Signal;HPM_P1;HPM_P2
2022/01/19 00:00:09;;;;;;;1.77;1.67;;;3.30;99.90;;;;;;5061069;28;20725;-67
2022/01/19 00:02:37;;;;;;;2.78;2.60;;;3.30;99.90;;;;;;5068143;28;20205;-66
2022/01/19 00:05:04;;;;;;;2.30;2.10;;;3.40;99.90;;;;;;5068375;28;20270;-66
2022/01/19 00:07:31;;;;;;;4.70;2.83;;;3.30;99.90;;;;;;5062926;28;20238;-67
2022/01/19 00:10:03;;;;;;;4.13;2.13;;;3.30;99.90;;;;;;5062259;28;20576;-67
2022/01/19 02:40:06;;;;;;;2.78;2.50;;;4.50;99.90;;;;;;5065096;28;20651;-64
2022/01/19 02:42:27;;;;;;;3.00;2.80;;;4.50;99.90;;;;;;5069183;28;20204;-65
2022/01/19 02:50:28;;;;;;;3.40;3.13;;;4.60;99.90;;;;;;5057622;28;20220;-63
2022/01/19 02:52:54;;;;;;;6.85;4.20;;;4.60;99.90;;;;;;5054342;28;20273;-64
2022/01/19 02:55:22;;;;;;;3.72;3.15;;;4.60;99.90;;;;;;5063717;28;20205;-65
2022/01/19 02:57:49;;;;;;;4.60;3.80;;;4.60;99.90;;;;;;5069314;28;20221;-64
2022/01/19 03:08:47;;;;;;;3.75;3.38;;;4.70;99.90;;;;;;5053660;28;20224;-64
2022/01/19 03:11:16;;;;;;;4.05;3.50;;;4.70;99.90;;;;;;5057003;28;20304;-65
2022/01/19 03:13:43;;;;;;;3.53;2.35;;;4.70;99.90;;;;;;5056161;28;20225;-65
2022/01/19 03:16:10;;;;;;;3.30;3.05;;;4.70;99.90;;;;;;5056131;28;20663;-66
2022/01/19 03:18:36;;;;;;;2.72;2.47;;;4.70;99.90;;;;;;5055486;28;20287;-66
2022/01/19 03:21:06;;;;;;;2.90;2.65;;;4.70;99.90;;;;;;5051829;28;20206;-66
2022/01/19 03:23:33;;;;;;;2.78;2.58;;;4.70;99.90;;;;;;5057238;28;20291;-66
2022/01/19 03:26:04;;;;;;;3.72;3.05;;;4.70;99.90;;;;;;5066317;28;20243;-66
2022/01/19 03:28:31;;;;;;;5.30;3.75;;;4.70;99.90;;;;;;5062574;28;20233;-67
2022/01/19 03:30:58;;;;;;;3.03;2.72;;;4.70;99.90;;;;;;5065059;28;20205;-66
2022/01/19 03:33:25;;;;;;;2.35;2.15;;;4.70;99.90;;;;;;5052092;28;20245;-65
2022/01/19 03:35:52;;;;;;;2.95;2.75;;;4.70;99.90;;;;;;5059690;28;20254;-65
2022/01/19 03:38:20;;;;;;;2.63;2.42;;;4.70;99.90;;;;;;5059223;28;20217;-64
2022/01/19 03:40:46;;;;;;;2.58;2.38;;;4.70;99.90;;;;;;5056468;28;20290;-67
2022/01/19 03:43:13;;;;;;;2.30;1.83;;;4.70;99.90;;;;;;5065268;28;20197;-64
2022/01/19 03:45:40;;;;;;;2.85;2.70;;;4.80;99.90;;;;;;5064349;28;20289;-64
2022/01/19 03:48:18;;;;;;;2.75;2.55;;;4.80;99.90;;;;;;5048041;28;20222;-64
2022/01/19 03:50:45;;;;;;;1.92;1.83;;;4.80;99.90;;;;;;5053873;28;20198;-67
2022/01/19 03:53:12;;;;;;;1.92;1.77;;;4.80;99.90;;;;;;5057839;28;20413;-64
2022/01/19 03:55:40;;;;;;;1.85;1.65;;;4.80;99.90;;;;;;5063426;28;20205;-65
2022/01/19 03:58:06;;;;;;;2.35;1.95;;;4.80;99.90;;;;;;5065871;28;20286;-65
2022/01/19 04:00:35;;;;;;;2.40;2.20;;;4.80;99.90;;;;;;5053846;28;20617;-65
2022/01/19 04:03:05;;;;;;;1.75;1.65;;;4.80;99.90;;;;;;5061063;28;20270;-65
2022/01/19 04:05:41;;;;;;;1.75;1.65;;;4.90;99.90;;;;;;5056763;28;20206;-64
2022/01/19 04:08:09;;;;;;;2.22;1.52;;;4.80;99.90;;;;;;5059028;28;20232;-64
2022/01/19 04:10:36;;;;;;;1.63;1.52;;;4.90;99.90;;;;;;5052131;28;20653;-65
2022/01/19 04:13:22;;;;;;;1.88;1.77;;;4.80;99.90;;;;;;5057084;28;20604;-65
2022/01/19 04:15:49;;;;;;;1.58;1.48;;;4.90;99.90;;;;;;5052632;28;20206;-65
2022/01/19 04:18:16;;;;;;;2.25;2.15;;;4.90;99.90;;;;;;5066179;28;20324;-65
2022/01/19 04:20:47;;;;;;;1.50;1.40;;;4.90;99.90;;;;;;5060860;28;20591;-66
2022/01/19 04:23:13;;;;;;;1.55;1.45;;;4.90;99.90;;;;;;5066770;28;20209;-65
2022/01/19 04:25:40;;;;;;;2.22;1.63;;;4.90;99.90;;;;;;5059993;28;20623;-64
2022/01/19 04:28:08;;;;;;;1.60;1.50;;;5.00;99.90;;;;;;5052362;28;20321;-65
2022/01/19 04:30:36;;;;;;;1.60;1.50;;;4.90;99.90;;;;;;5064394;28;20285;-67
2022/01/19 04:33:08;;;;;;;1.45;1.35;;;5.00;99.90;;;;;;5052193;28;20271;-64
2022/01/19 04:35:45;;;;;;;1.40;1.30;;;4.90;99.90;;;;;;5067235;28;20236;-65
2022/01/19 04:44:06;;;;;;;2.50;2.25;;;4.90;99.90;;;;;;5060382;28;20200;-67
2022/01/19 05:03:14;;;;;;;1.50;1.40;;;4.90;99.90;;;;;;5067462;28;20227;-65
2022/01/19 05:05:49;;;;;;;3.08;1.33;;;4.90;99.90;;;;;;5057008;28;20345;-64
2022/01/19 05:08:23;;;;;;;1.60;1.50;;;4.90;99.90;;;;;;5063711;28;20269;-64
2022/01/19 05:13:52;;;;;;;1.20;1.10;;;4.90;99.90;;;;;;4973432;28;20582;-63
2022/01/19 05:16:20;;;;;;;1.30;1.20;;;4.90;99.90;;;;;;4974791;28;20295;-66
2022/01/19 05:18:47;;;;;;;1.00;1.00;;;4.90;99.90;;;;;;5010946;28;20298;-65
2022/01/19 05:21:14;;;;;;;1.35;1.25;;;4.90;99.90;;;;;;5065187;28;20209;-64
2022/01/19 05:23:41;;;;;;;1.25;1.15;;;4.90;99.90;;;;;;5066065;28;20227;-65
2022/01/19 05:26:08;;;;;;;8.90;1.17;;;4.90;99.90;;;;;;5065381;28;20259;-64
2022/01/19 05:28:35;;;;;;;0.70;0.70;;;4.90;99.90;;;;;;5060250;28;20241;-64
2022/01/19 05:31:02;;;;;;;2.08;1.92;;;4.90;99.90;;;;;;5062294;28;20194;-63
2022/01/19 05:33:30;;;;;;;2.20;1.50;;;4.80;99.90;;;;;;5072129;28;20274;-64
2022/01/19 05:35:56;;;;;;;1.40;1.30;;;4.80;99.90;;;;;;5071636;28;20198;-63
2022/01/19 05:38:23;;;;;;;1.50;1.40;;;4.80;99.90;;;;;;5077704;28;20614;-64
2022/01/19 05:40:50;;;;;;;1.30;1.30;;;4.80;99.90;;;;;;5073975;28;20213;-64
2022/01/19 05:43:16;;;;;;;1.70;1.60;;;4.80;99.90;;;;;;5073711;28;20224;-64
2022/01/19 05:45:43;;;;;;;2.05;1.75;;;4.80;99.90;;;;;;5058180;28;20197;-63
2022/01/19 05:48:10;;;;;;;1.60;1.50;;;4.90;99.90;;;;;;5064229;28;20343;-64
2022/01/19 05:50:38;;;;;;;1.00;1.00;;;4.90;99.90;;;;;;5065685;28;20224;-64
2022/01/19 05:53:04;;;;;;;1.15;1.05;;;4.80;99.90;;;;;;5071264;28;20239;-65
2022/01/19 05:55:31;;;;;;;1.70;1.60;;;4.90;99.90;;;;;;5063479;28;20266;-64
2022/01/19 05:57:58;;;;;;;2.17;1.40;;;4.80;99.90;;;;;;5053637;28;20290;-64
2022/01/19 06:00:24;;;;;;;1.65;1.55;;;4.80;99.90;;;;;;5051798;28;20251;-64
2022/01/19 06:02:52;;;;;;;1.40;1.30;;;4.80;99.90;;;;;;5068897;28;20633;-63
2022/01/19 06:05:19;;;;;;;1.70;1.60;;;4.80;99.90;;;;;;5057486;28;20258;-64
2022/01/19 06:07:48;;;;;;;1.88;1.42;;;4.80;99.90;;;;;;5059505;28;20296;-64
2022/01/19 06:12:56;;;;;;;1.65;1.40;;;4.80;99.90;;;;;;5072635;28;20231;-64
2022/01/19 06:15:23;;;;;;;3.08;2.40;;;4.80;99.90;;;;;;5078907;28;20280;-66
2022/01/19 06:17:49;;;;;;;1.95;1.50;;;4.70;99.90;;;;;;5086800;28;20229;-63
2022/01/19 06:20:16;;;;;;;1.80;1.70;;;4.80;99.90;;;;;;5069578;28;20264;-66
2022/01/19 06:22:43;;;;;;;1.67;1.58;;;4.80;99.90;;;;;;5060729;28;20230;-63
2022/01/19 06:25:11;;;;;;;1.48;1.38;;;4.70;99.90;;;;;;5062501;28;20647;-63
2022/01/19 06:27:37;;;;;;;5.47;1.85;;;4.70;99.90;;;;;;5062550;28;20241;-70
2022/01/19 06:30:05;;;;;;;1.77;1.67;;;4.90;99.90;;;;;;5050972;28;20612;-63
2022/01/19 06:32:32;;;;;;;1.55;1.45;;;5.00;99.90;;;;;;5057270;28;20220;-65
2022/01/19 06:34:58;;;;;;;1.90;1.42;;;5.00;99.90;;;;;;5061697;28;20260;-66
2022/01/19 06:37:25;;;;;;;1.52;1.42;;;5.00;99.90;;;;;;5058334;28;20230;-67
2022/01/19 06:39:52;;;;;;;1.70;1.60;;;4.90;99.90;;;;;;5063911;28;20358;-64
2022/01/19 06:42:20;;;;;;;1.50;1.40;;;4.80;99.90;;;;;;5059853;28;20296;-64
2022/01/19 06:44:47;;;;;;;2.30;2.10;;;4.80;99.90;;;;;;5057219;28;20209;-65
2022/01/19 06:47:13;;;;;;;2.92;1.42;;;4.80;99.90;;;;;;5056872;28;20229;-63
2022/01/19 06:49:40;;;;;;;1.73;1.63;;;4.80;99.90;;;;;;5056662;28;20704;-63
2022/01/19 06:52:07;;;;;;;2.67;2.47;;;4.80;99.90;;;;;;5070041;28;20254;-63
2022/01/19 06:54:34;;;;;;;2.95;1.70;;;4.80;99.90;;;;;;5062454;28;20202;-62
2022/01/19 06:57:01;;;;;;;3.25;3.05;;;4.80;99.90;;;;;;5051960;28;20741;-66
2022/01/19 06:59:29;;;;;;;2.38;1.85;;;4.80;99.90;;;;;;5057348;28;20617;-63
2022/01/19 07:01:55;;;;;;;1.83;1.73;;;4.70;99.90;;;;;;5068799;28;20959;-63
2022/01/19 07:04:22;;;;;;;2.00;1.90;;;4.70;99.90;;;;;;5066478;28;20275;-62
2022/01/19 07:06:48;;;;;;;1.52;1.40;;;4.70;99.90;;;;;;5054894;28;20266;-63
2022/01/19 07:09:16;;;;;;;1.75;1.65;;;4.70;99.90;;;;;;5048809;28;20202;-63
2022/01/19 07:11:43;;;;;;;2.78;2.58;;;4.70;99.90;;;;;;5063059;28;20235;-64
2022/01/19 07:14:12;;;;;;;2.00;1.90;;;4.70;99.90;;;;;;5048608;28;20832;-64
2022/01/19 07:16:40;;;;;;;2.33;2.22;;;4.70;99.90;;;;;;5054470;28;20205;-63
2022/01/19 07:19:07;;;;;;;1.88;1.65;;;4.70;99.90;;;;;;5079717;28;20217;-63
2022/01/19 07:21:34;;;;;;;2.20;1.83;;;4.70;99.90;;;;;;5078233;28;20282;-63
2022/01/19 07:24:01;;;;;;;3.15;2.80;;;4.80;99.90;;;;;;5078817;28;20631;-64
2022/01/19 07:26:27;;;;;;;1.60;1.50;;;4.70;99.90;;;;;;5062764;28;20210;-64
2022/01/19 07:28:54;;;;;;;2.10;1.98;;;4.70;99.90;;;;;;5062993;28;20367;-63
2022/01/19 07:31:21;;;;;;;1.85;1.75;;;4.70;99.90;;;;;;5063122;28;20235;-63
2022/01/19 07:33:49;;;;;;;1.92;1.50;;;4.70;99.90;;;;;;5050405;28;20201;-63
2022/01/19 07:36:16;;;;;;;2.75;2.55;;;4.70;99.90;;;;;;5062274;28;20609;-63
2022/01/19 07:38:43;;;;;;;3.08;2.88;;;4.70;99.90;;;;;;5047961;28;20248;-71
2022/01/19 07:41:10;;;;;;;2.70;2.50;;;4.70;99.90;;;;;;5064895;28;20206;-72
2022/01/19 07:43:37;;;;;;;4.55;3.00;;;4.80;99.90;;;;;;5057854;28;20197;-73
2022/01/19 07:46:04;;;;;;;2.95;2.30;;;4.80;99.90;;;;;;5052255;28;20643;-64
2022/01/19 07:48:31;;;;;;;3.72;2.50;;;4.90;99.90;;;;;;5066488;28;20233;-64
2022/01/19 07:50:59;;;;;;;3.25;2.90;;;4.90;99.90;;;;;;5062662;28;20262;-63
2022/01/19 07:53:26;;;;;;;2.45;2.35;;;4.90;99.90;;;;;;5060798;28;20216;-63
2022/01/19 07:55:53;;;;;;;3.05;2.05;;;4.90;99.90;;;;;;5060136;28;20205;-65
2022/01/19 07:58:20;;;;;;;3.70;2.58;;;4.90;99.90;;;;;;5068280;28;20228;-63
2022/01/19 08:00:47;;;;;;;2.90;2.60;;;4.80;99.90;;;;;;5061532;28;20575;-64
2022/01/19 08:03:14;;;;;;;2.70;2.50;;;4.80;99.90;;;;;;5067573;28;20315;-63
2022/01/19 08:05:41;;;;;;;2.72;2.53;;;4.80;99.90;;;;;;5059401;28;20209;-63
2022/01/19 08:08:09;;;;;;;3.30;3.03;;;4.80;99.90;;;;;;5066180;28;20327;-63
2022/01/19 08:10:35;;;;;;;2.95;2.75;;;4.80;99.90;;;;;;5062346;28;20214;-63
2022/01/19 08:13:02;;;;;;;1.95;1.73;;;4.90;99.90;;;;;;5058609;28;20276;-62
2022/01/19 08:15:30;;;;;;;2.88;2.40;;;4.90;99.90;;;;;;5047360;28;20228;-63
2022/01/19 08:17:56;;;;;;;3.20;2.90;;;4.90;99.90;;;;;;5061170;28;20229;-63
2022/01/19 08:20:23;;;;;;;1.80;1.70;;;4.90;99.90;;;;;;5065087;28;20271;-64
2022/01/19 08:22:50;;;;;;;3.30;2.60;;;4.90;99.90;;;;;;5054565;28;20206;-63
2022/01/19 08:25:18;;;;;;;2.80;2.60;;;4.80;99.90;;;;;;5064393;28;20202;-63
2022/01/19 08:27:44;;;;;;;2.47;2.13;;;4.80;99.90;;;;;;5053744;28;20226;-64
2022/01/19 08:30:13;;;;;;;2.50;2.30;;;4.80;99.90;;;;;;5055661;28;20209;-63
2022/01/19 08:32:40;;;;;;;2.58;2.38;;;4.90;99.90;;;;;;5053846;28;20213;-63
2022/01/19 08:35:09;;;;;;;2.85;2.42;;;4.90;99.90;;;;;;5060577;28;20618;-63
2022/01/19 08:37:36;;;;;;;2.97;2.20;;;4.90;99.90;;;;;;5064232;28;20314;-64
2022/01/19 08:40:04;;;;;;;3.05;2.72;;;4.90;99.90;;;;;;5060427;28;20491;-63
2022/01/19 08:42:33;;;;;;;2.83;2.63;;;4.90;99.90;;;;;;5049442;28;20206;-63
2022/01/19 08:45:04;;;;;;;3.88;2.42;;;4.90;99.90;;;;;;5053629;28;20676;-62
2022/01/19 08:47:31;;;;;;;2.63;2.42;;;4.80;99.90;;;;;;5063456;28;20243;-63
2022/01/19 08:49:58;;;;;;;4.38;3.05;;;4.80;99.90;;;;;;5061053;28;20267;-63
2022/01/19 08:52:25;;;;;;;2.05;1.85;;;4.80;99.90;;;;;;5058037;28;20263;-63
2022/01/19 08:54:51;;;;;;;2.78;2.55;;;4.80;99.90;;;;;;5076068;28;20296;-63
2022/01/19 08:57:19;;;;;;;2.67;2.53;;;4.80;99.90;;;;;;5063243;28;20371;-63
2022/01/19 08:59:47;;;;;;;3.13;2.92;;;4.80;99.90;;;;;;5065820;28;20231;-64
2022/01/19 09:02:14;;;;;;;2.83;2.63;;;4.80;99.90;;;;;;5087212;28;20216;-65
2022/01/19 09:04:40;;;;;;;2.80;2.65;;;4.90;99.90;;;;;;5071009;28;20247;-64
2022/01/19 09:07:07;;;;;;;4.97;2.40;;;4.90;99.90;;;;;;5055697;28;20298;-63
2022/01/19 09:09:34;;;;;;;2.70;2.50;;;4.90;99.90;;;;;;5067301;28;20299;-65
2022/01/19 09:12:00;;;;;;;3.42;2.50;;;4.90;99.90;;;;;;5063601;28;20686;-65
2022/01/19 09:14:28;;;;;;;2.67;2.47;;;4.90;99.90;;;;;;5057328;28;20217;-64
2022/01/19 09:16:56;;;;;;;3.35;2.85;;;4.90;99.90;;;;;;5056184;28;20327;-63
2022/01/19 09:19:23;;;;;;;3.15;2.78;;;4.90;99.90;;;;;;5058797;28;20604;-63
2022/01/19 09:21:51;;;;;;;4.88;3.53;;;4.80;99.90;;;;;;5061608;28;20205;-63
2022/01/19 09:24:18;;;;;;;3.97;3.42;;;4.80;99.90;;;;;;5070904;28;20299;-63
2022/01/19 09:26:45;;;;;;;2.63;2.42;;;4.80;99.90;;;;;;5067395;28;20202;-63
2022/01/19 09:29:12;;;;;;;2.65;2.40;;;4.70;99.90;;;;;;5067468;28;20707;-63
2022/01/19 09:31:39;;;;;;;4.20;3.40;;;4.70;99.90;;;;;;5063741;28;20605;-63
2022/01/19 09:34:10;;;;;;;2.90;2.60;;;4.80;99.90;;;;;;5058293;28;20193;-63
2022/01/19 09:36:44;;;;;;;2.75;2.53;;;4.80;99.90;;;;;;5065759;28;20578;-63
2022/01/19 09:39:12;;;;;;;4.78;2.97;;;4.80;99.90;;;;;;5064830;28;20633;-63
2022/01/19 09:41:40;;;;;;;2.97;2.78;;;4.90;99.90;;;;;;5059409;28;20243;-64
2022/01/19 09:44:07;;;;;;;3.50;3.13;;;4.90;99.90;;;;;;5070719;28;20205;-63
2022/01/19 09:46:34;;;;;;;3.25;3.05;;;4.90;99.90;;;;;;5066849;28;20233;-63
2022/01/19 09:49:01;;;;;;;3.55;3.30;;;4.90;99.90;;;;;;5068644;28;20290;-63
2022/01/19 09:51:30;;;;;;;4.75;4.07;;;4.90;99.90;;;;;;5071145;28;20838;-63
2022/01/19 09:53:56;;;;;;;4.05;3.65;;;4.90;99.90;;;;;;5071033;28;20239;-63
2022/01/19 09:56:23;;;;;;;4.80;4.32;;;4.90;99.90;;;;;;5069476;28;20356;-63
2022/01/19 09:58:50;;;;;;;4.82;4.38;;;4.90;99.90;;;;;;5069275;28;20793;-63
2022/01/19 10:01:20;;;;;;;4.78;3.75;;;4.90;99.90;;;;;;5073535;28;20219;-62
2022/01/19 10:03:47;;;;;;;3.40;2.92;;;4.90;99.90;;;;;;5063071;28;20205;-63
2022/01/19 10:06:15;;;;;;;4.30;3.90;;;4.90;99.90;;;;;;5062726;28;20209;-64
2022/01/19 10:08:45;;;;;;;4.72;3.90;;;4.90;99.90;;;;;;5069494;28;20276;-63
2022/01/19 10:11:20;;;;;;;3.85;3.55;;;4.90;99.90;;;;;;5068859;28;20262;-63
2022/01/19 10:19:22;;;;;;;3.97;3.67;;;4.90;99.90;;;;;;5062573;28;20204;-63
2022/01/19 10:22:13;;;;;;;3.67;3.40;;;4.90;99.90;;;;;;5070002;28;20269;-64
2022/01/19 10:24:48;;;;;;;4.40;3.40;;;5.00;99.90;;;;;;5044106;28;20532;-63
2022/01/19 10:27:24;;;;;;;5.15;4.55;;;5.00;99.90;;;;;;5066638;28;20227;-62
2022/01/19 10:29:53;;;;;;;4.15;3.78;;;4.90;99.90;;;;;;5086410;28;20296;-63
2022/01/19 10:32:22;;;;;;;3.30;3.00;;;4.80;99.90;;;;;;5084799;28;20198;-62
2022/01/19 10:34:48;;;;;;;3.80;3.50;;;4.80;99.90;;;;;;5074539;28;20197;-64
2022/01/19 10:37:22;;;;;;;4.05;3.65;;;4.70;99.90;;;;;;5069848;28;20233;-63
2022/01/19 10:39:54;;;;;;;5.43;4.10;;;4.80;99.90;;;;;;5071742;28;20197;-64
2022/01/19 10:42:23;;;;;;;4.93;4.53;;;4.80;99.90;;;;;;5072178;28;20284;-63
2022/01/19 10:44:52;;;;;;;6.20;4.97;;;4.80;99.90;;;;;;5054485;28;20201;-63
2022/01/19 10:47:19;;;;;;;4.07;3.70;;;4.80;99.90;;;;;;5066366;28;20301;-63
2022/01/19 10:49:55;;;;;;;13.40;5.18;;;4.80;99.90;;;;;;5066655;28;20214;-62
2022/01/19 10:52:29;;;;;;;6.15;4.00;;;4.80;99.90;;;;;;5064699;28;20212;-64
2022/01/19 10:54:58;;;;;;;4.47;4.05;;;4.80;99.90;;;;;;5064826;28;20795;-64
2022/01/19 10:57:25;;;;;;;5.78;4.95;;;4.90;99.90;;;;;;5055948;28;20221;-63
2022/01/19 10:59:53;;;;;;;5.25;4.75;;;4.90;99.90;;;;;;5070995;28;20194;-63
2022/01/19 11:02:20;;;;;;;4.97;4.47;;;4.90;99.90;;;;;;5069822;28;20216;-64
2022/01/19 11:04:47;;;;;;;3.20;2.97;;;5.00;99.90;;;;;;5068611;28;20208;-63
2022/01/19 11:07:19;;;;;;;3.75;3.35;;;5.00;99.90;;;;;;5069423;28;20221;-62
2022/01/19 11:09:56;;;;;;;4.10;3.80;;;5.10;99.90;;;;;;5066829;28;20271;-64
2022/01/19 11:12:29;;;;;;;5.75;5.22;;;5.10;99.90;;;;;;5067139;28;20209;-64
2022/01/19 11:14:56;;;;;;;4.25;3.88;;;5.20;99.90;;;;;;5069123;28;20221;-64
2022/01/19 11:17:23;;;;;;;5.85;4.43;;;5.20;99.90;;;;;;5068817;28;20237;-63
2022/01/19 11:19:50;;;;;;;5.20;4.70;;;5.30;99.90;;;;;;5066567;28;20263;-63
2022/01/19 11:22:27;;;;;;;7.20;5.03;;;5.30;99.90;;;;;;5082249;22;20220;-70
2022/01/19 11:25:03;;;;;;;4.20;3.83;;;5.20;99.90;;;;;;5050915;28;20207;-70
2022/01/19 11:27:39;;;;;;;5.65;4.55;;;5.20;99.90;;;;;;5038714;28;20268;-70
2022/01/19 11:30:13;;;;;;;4.75;4.15;;;5.10;99.90;;;;;;5044061;28;20230;-70
2022/01/19 11:32:41;;;;;;;3.38;3.08;;;5.10;99.90;;;;;;5036506;28;20222;-70
2022/01/19 11:35:08;;;;;;;5.10;4.15;;;5.20;99.90;;;;;;5029060;28;20210;-70
2022/01/19 11:37:37;;;;;;;4.72;4.32;;;5.20;99.90;;;;;;5026524;28;20210;-70
2022/01/19 11:40:10;;;;;;;5.10;3.83;;;5.30;99.90;;;;;;5031391;28;20206;-70
2022/01/19 11:42:39;;;;;;;5.93;4.72;;;5.30;99.90;;;;;;5027209;28;20628;-68
2022/01/19 11:45:08;;;;;;;4.45;4.05;;;5.30;99.90;;;;;;5027882;28;20715;-70
2022/01/19 11:47:35;;;;;;;6.18;4.75;;;5.40;99.90;;;;;;5026121;28;20217;-70
2022/01/19 11:50:05;;;;;;;4.70;4.30;;;5.40;99.90;;;;;;5027044;28;20231;-72
2022/01/19 11:53:09;;;;;;;4.47;4.07;;;5.40;99.90;;;;;;5019832;28;20644;-69
2022/01/19 11:55:38;;;;;;;6.13;4.63;;;5.30;99.90;;;;;;4961940;28;20256;-71
2022/01/19 11:58:21;;;;;;;4.53;4.10;;;5.30;99.90;;;;;;4963830;28;20201;-71
2022/01/19 12:00:51;;;;;;;3.88;3.53;;;5.30;99.90;;;;;;4999906;28;20244;-70
2022/01/19 12:03:22;;;;;;;6.38;4.25;;;5.20;99.90;;;;;;5028961;28;20716;-72
2022/01/19 12:05:51;;;;;;;10.15;6.50;;;5.20;99.90;;;;;;5025096;28;20268;-72
2022/01/19 12:08:36;;;;;;;4.50;4.07;;;5.20;99.90;;;;;;5024590;28;20250;-70
2022/01/19 12:11:14;;;;;;;5.57;4.97;;;5.20;99.90;;;;;;5024927;28;20198;-70
2022/01/19 12:16:48;;;;;;;5.45;3.70;;;5.20;99.90;;;;;;5021362;28;20712;-69
2022/01/19 12:19:20;;;;;;;6.35;4.38;;;5.20;99.90;;;;;;5026962;28;20195;-71
2022/01/19 12:21:50;;;;;;;5.43;3.65;;;5.20;99.90;;;;;;5027860;28;20213;-71
2022/01/19 12:24:22;;;;;;;5.82;5.28;;;5.20;99.90;;;;;;5025337;28;20215;-70
2022/01/19 12:27:01;;;;;;;4.82;4.30;;;5.20;99.90;;;;;;5027892;28;20234;-69
2022/01/19 12:29:39;;;;;;;4.50;3.88;;;5.20;99.90;;;;;;5029226;28;20222;-71
2022/01/19 12:32:08;;;;;;;5.72;4.50;;;5.20;99.90;;;;;;5023820;28;20210;-72
2022/01/19 12:34:41;;;;;;;3.47;2.90;;;5.20;99.90;;;;;;5029245;28;20206;-71
2022/01/19 12:37:09;;;;;;;6.70;4.22;;;5.20;99.90;;;;;;5029394;28;20207;-69
2022/01/19 12:39:42;;;;;;;5.50;4.25;;;5.10;99.90;;;;;;5029164;28;20206;-71
2022/01/19 12:42:15;;;;;;;5.72;4.53;;;5.10;99.90;;;;;;5014597;28;20211;-71
2022/01/19 12:44:46;;;;;;;5.53;5.03;;;5.10;99.90;;;;;;5019850;28;20227;-71
2022/01/19 12:47:44;;;;;;;4.75;4.30;;;5.10;99.90;;;;;;5019444;28;20844;-73
2022/01/19 12:50:40;;;;;;;6.18;5.10;;;5.20;99.90;;;;;;5015568;28;20237;-71
2022/01/19 12:53:13;;;;;;;5.60;5.07;;;5.10;99.90;;;;;;5023903;28;20241;-74
2022/01/19 12:55:42;;;;;;;5.03;3.72;;;5.10;99.90;;;;;;5028249;28;20211;-73
2022/01/19 12:58:12;;;;;;;10.25;4.78;;;5.10;99.90;;;;;;5025056;28;20203;-73
2022/01/19 13:00:41;;;;;;;5.47;3.95;;;5.10;99.90;;;;;;5020645;28;20199;-71
2022/01/19 13:03:19;;;;;;;3.78;3.47;;;5.10;99.90;;;;;;5035148;28;20253;-75
2022/01/19 13:05:48;;;;;;;6.20;5.60;;;5.10;99.90;;;;;;5024694;28;20202;-74
2022/01/19 13:08:28;;;;;;;6.35;5.35;;;5.10;99.90;;;;;;5018418;28;20206;-70
2022/01/19 13:11:02;;;;;;;6.15;4.70;;;5.10;99.90;;;;;;5017016;28;20264;-70
2022/01/19 13:13:29;;;;;;;5.32;4.80;;;5.10;99.90;;;;;;5028751;28;20226;-70
2022/01/19 13:15:59;;;;;;;5.50;4.65;;;5.00;99.90;;;;;;5027307;28;20726;-71
2022/01/19 13:18:33;;;;;;;7.32;5.43;;;5.00;99.90;;;;;;5026739;28;20217;-71
2022/01/19 13:21:03;;;;;;;4.50;4.10;;;5.10;99.90;;;;;;5027116;28;20194;-69
2022/01/19 13:23:31;;;;;;;6.63;5.20;;;5.00;99.90;;;;;;5025401;28;20239;-72
2022/01/19 13:25:59;;;;;;;5.90;4.40;;;5.00;99.90;;;;;;5020255;28;22029;-70
2022/01/19 13:28:27;;;;;;;6.82;6.13;;;5.00;99.90;;;;;;5019960;28;20703;-72
2022/01/19 13:30:57;;;;;;;6.80;5.32;;;5.00;99.90;;;;;;5025469;28;20199;-70
2022/01/19 13:33:26;;;;;;;6.43;4.90;;;5.00;99.90;;;;;;5027495;28;20215;-72
2022/01/19 13:36:03;;;;;;;5.57;4.25;;;5.00;99.90;;;;;;5020987;28;20628;-69
2022/01/19 13:38:30;;;;;;;6.55;5.07;;;4.90;99.90;;;;;;5026925;28;20206;-69
2022/01/19 13:41:05;;;;;;;5.68;5.15;;;4.90;99.90;;;;;;5023255;28;20218;-71
2022/01/19 13:43:35;;;;;;;6.32;4.93;;;4.90;99.90;;;;;;5022305;28;20230;-71
2022/01/19 13:46:12;;;;;;;5.88;5.30;;;4.90;99.90;;;;;;5021142;28;20214;-70
2022/01/19 13:48:43;;;;;;;7.63;5.18;;;4.90;99.90;;;;;;5019181;28;20198;-69
2022/01/19 13:51:14;;;;;;;7.68;6.30;;;4.90;99.90;;;;;;5027447;28;20290;-70
2022/01/19 13:53:42;;;;;;;6.00;5.47;;;5.00;99.90;;;;;;5028564;28;20646;-70
2022/01/19 13:56:10;;;;;;;5.25;4.05;;;5.00;99.90;;;;;;5022583;28;20329;-69
2022/01/19 13:58:39;;;;;;;7.40;5.13;;;5.00;99.90;;;;;;5020697;28;20219;-70
2022/01/19 14:01:08;;;;;;;7.00;5.60;;;5.00;99.90;;;;;;5019707;28;20202;-69
2022/01/19 14:03:49;;;;;;;8.00;6.57;;;5.00;99.90;;;;;;5017759;28;20223;-69
2022/01/19 14:06:24;;;;;;;9.02;7.40;;;5.00;99.90;;;;;;5022088;28;20234;-70
2022/01/19 14:09:03;;;;;;;7.28;6.50;;;4.90;99.90;;;;;;5037411;28;21004;-70
2022/01/19 14:11:30;;;;;;;6.25;5.50;;;4.90;99.90;;;;;;5026369;28;20202;-70
2022/01/19 14:14:01;;;;;;;7.15;6.45;;;4.90;99.90;;;;;;5027999;28;20280;-70
2022/01/19 14:16:31;;;;;;;8.15;5.30;;;4.80;99.90;;;;;;5029121;28;20276;-70
2022/01/19 14:19:30;;;;;;;6.22;5.05;;;4.80;99.90;;;;;;5025021;28;20191;-70
2022/01/19 14:22:04;;;;;;;6.03;4.78;;;4.80;99.90;;;;;;4959555;28;20211;-69
2022/01/19 14:24:44;;;;;;;7.45;5.15;;;4.80;99.90;;;;;;5015486;28;20203;-70
2022/01/19 14:27:14;;;;;;;7.55;6.85;;;4.70;99.90;;;;;;5022576;28;20206;-69
2022/01/19 14:29:57;;;;;;;10.30;6.43;;;4.80;99.90;;;;;;5027690;28;20709;-70
2022/01/19 14:32:34;;;;;;;10.30;7.10;;;4.80;99.90;;;;;;5022968;28;20223;-70
2022/01/19 14:35:03;;;;;;;9.15;6.82;;;4.70;99.90;;;;;;5026424;28;20199;-70
2022/01/19 14:37:30;;;;;;;8.73;6.27;;;4.70;99.90;;;;;;5022721;28;20507;-69
2022/01/19 14:40:00;;;;;;;8.02;6.50;;;4.70;99.90;;;;;;5024832;28;20445;-66
2022/01/19 14:42:29;;;;;;;7.85;5.82;;;4.70;99.90;;;;;;5026590;28;20223;-65
2022/01/19 14:45:19;;;;;;;13.93;6.57;;;4.70;99.90;;;;;;5022117;28;20209;-70
2022/01/19 14:47:46;;;;;;;6.68;5.35;;;4.90;99.90;;;;;;5029053;28;20206;-69
2022/01/19 14:50:35;;;;;;;5.93;4.93;;;4.80;99.90;;;;;;5017859;28;20230;-70
2022/01/19 14:53:03;;;;;;;14.45;7.07;;;4.70;99.90;;;;;;5030549;28;20709;-70
2022/01/19 14:55:32;;;;;;;5.95;5.38;;;4.70;99.90;;;;;;5027813;28;20260;-68
2022/01/19 14:58:00;;;;;;;6.60;5.93;;;4.60;99.90;;;;;;5030305;28;20210;-69
2022/01/19 15:00:30;;;;;;;7.22;5.80;;;4.60;99.90;;;;;;5028819;28;20199;-69
2022/01/19 15:02:59;;;;;;;8.48;5.90;;;4.60;99.90;;;;;;5016447;28;20226;-69
2022/01/19 15:05:27;;;;;;;8.20;5.15;;;4.60;99.90;;;;;;5027635;28;20195;-69
2022/01/19 15:07:55;;;;;;;6.78;5.25;;;4.60;99.90;;;;;;5020577;28;20246;-69
2022/01/19 15:10:23;;;;;;;4.72;3.90;;;4.60;99.90;;;;;;5023643;28;20246;-70
2022/01/19 15:12:52;;;;;;;11.48;5.13;;;4.60;99.90;;;;;;5018444;28;20295;-70
2022/01/19 15:15:21;;;;;;;6.90;4.97;;;4.60;99.90;;;;;;5019812;28;20207;-71
2022/01/19 15:17:48;;;;;;;5.93;4.65;;;4.60;99.90;;;;;;5010259;28;20199;-71
2022/01/19 15:20:15;;;;;;;7.30;5.10;;;4.50;99.90;;;;;;5025614;28;20735;-69
2022/01/19 15:22:44;;;;;;;7.15;5.07;;;4.50;99.90;;;;;;5021650;28;20235;-70
2022/01/19 15:25:13;;;;;;;4.85;4.35;;;4.50;99.90;;;;;;5017651;28;20210;-72
2022/01/19 15:27:40;;;;;;;4.40;4.10;;;4.50;99.90;;;;;;5025669;28;20210;-71
2022/01/19 15:30:09;;;;;;;4.85;4.38;;;4.60;99.90;;;;;;5025552;28;20652;-71
2022/01/19 15:32:35;;;;;;;6.25;4.30;;;4.60;99.90;;;;;;5024200;28;20633;-70
2022/01/19 15:35:02;;;;;;;6.75;4.03;;;4.60;99.90;;;;;;5025087;28;20203;-69
2022/01/19 15:37:29;;;;;;;4.47;4.05;;;4.50;99.90;;;;;;5026946;28;20199;-71
2022/01/19 15:39:56;;;;;;;6.13;5.53;;;4.50;99.90;;;;;;5024353;28;20198;-71
2022/01/19 15:42:24;;;;;;;6.05;4.70;;;4.50;99.90;;;;;;5024332;28;20236;-69
2022/01/19 15:44:50;;;;;;;7.63;5.95;;;4.60;99.90;;;;;;5017621;28;20261;-70
2022/01/19 15:47:19;;;;;;;5.53;3.97;;;4.60;99.90;;;;;;5025705;28;20215;-70
2022/01/19 15:49:46;;;;;;;14.75;6.60;;;4.60;99.90;;;;;;5023817;28;20251;-71
2022/01/19 15:52:12;;;;;;;7.90;5.70;;;4.50;99.90;;;;;;5025096;28;20310;-70
2022/01/19 15:54:39;;;;;;;6.50;5.05;;;4.50;99.90;;;;;;5026875;28;20194;-70
2022/01/19 15:57:06;;;;;;;6.43;4.95;;;4.50;99.90;;;;;;5024182;28;20202;-70
2022/01/19 15:59:34;;;;;;;6.90;6.20;;;4.40;99.90;;;;;;5023338;28;20191;-70
2022/01/19 16:02:01;;;;;;;7.80;5.45;;;4.30;99.90;;;;;;5024367;28;20246;-70
2022/01/19 16:04:28;;;;;;;5.80;4.78;;;4.30;99.90;;;;;;5021426;28;20276;-71
2022/01/19 16:06:55;;;;;;;7.55;4.85;;;4.20;99.90;;;;;;5025788;28;20195;-71
2022/01/19 16:09:22;;;;;;;5.53;4.60;;;4.20;99.90;;;;;;5026040;28;20206;-71
2022/01/19 16:11:49;;;;;;;7.18;4.80;;;4.20;99.90;;;;;;5026596;28;20578;-71
2022/01/19 16:14:16;;;;;;;7.65;6.65;;;4.20;99.90;;;;;;5023400;28;20227;-71
2022/01/19 16:16:46;;;;;;;7.75;6.13;;;4.20;99.90;;;;;;5024384;28;20202;-71
2022/01/19 16:19:13;;;;;;;11.20;5.90;;;4.20;99.90;;;;;;5019309;28;20203;-70
2022/01/19 16:21:41;;;;;;;6.95;6.25;;;4.20;99.90;;;;;;5017803;28;20210;-69
2022/01/19 16:26:53;;;;;;;6.53;5.90;;;4.20;99.90;;;;;;5023484;28;20209;-70
2022/01/19 16:29:19;;;;;;;11.80;6.40;;;4.10;99.90;;;;;;5017349;28;20203;-71